createdAt,value
2022-12-20T00:02:26.185Z,4.67
2022-12-20T00:04:53.041Z,4.64
2022-12-20T00:07:19.499Z,4.60
2022-12-20T00:09:46.305Z,4.57
2022-12-20T00:12:12.762Z,4.55
2022-12-20T00:14:39.330Z,4.50
2022-12-20T00:17:05.958Z,4.46
2022-12-20T00:19:32.449Z,4.43
2022-12-20T00:21:59.038Z,4.48
2022-12-20T00:24:26.570Z,4.44
2022-12-20T00:26:53.161Z,4.37
2022-12-20T00:29:19.637Z,4.39
2022-12-20T00:31:46.221Z,4.37
2022-12-20T00:34:12.779Z,4.44
2022-12-20T00:36:39.542Z,4.40
2022-12-20T00:39:06.055Z,4.38
2022-12-20T00:41:33.581Z,4.27
2022-12-20T00:44:00.344Z,4.27
2022-12-20T00:46:26.962Z,4.24
2022-12-20T00:48:53.797Z,4.24
2022-12-20T00:51:22.741Z,4.18
2022-12-20T00:53:49.247Z,4.12
2022-12-20T00:56:15.733Z,4.12
2022-12-20T00:58:42.700Z,4.14
2022-12-20T01:01:19.801Z,4.12
2022-12-20T01:03:46.402Z,4.09
2022-12-20T01:06:12.887Z,4.03
2022-12-20T01:08:39.633Z,4.01
2022-12-20T01:11:09.192Z,4.07
2022-12-20T01:13:36.876Z,4.15
2022-12-20T01:16:07.590Z,4.21
2022-12-20T01:18:34.129Z,4.21
2022-12-20T01:21:04.835Z,4.29
2022-12-20T01:23:31.420Z,4.40
2022-12-20T01:25:59.370Z,4.39
2022-12-20T01:28:25.883Z,4.41
2022-12-20T01:30:52.346Z,4.50
2022-12-20T01:33:18.825Z,4.64
2022-12-20T01:35:58.247Z,4.65
2022-12-20T01:38:24.807Z,4.67
2022-12-20T01:40:51.272Z,4.70
2022-12-20T01:43:17.955Z,4.78
2022-12-20T01:45:44.496Z,4.88
2022-12-20T01:48:11.444Z,4.79
2022-12-20T01:50:37.909Z,4.82
2022-12-20T01:53:05.393Z,4.93
2022-12-20T01:55:31.857Z,4.90
2022-12-20T01:58:03.182Z,4.95
2022-12-20T02:00:30.224Z,4.94
2022-12-20T02:02:59.475Z,5.08
2022-12-20T02:05:26.019Z,5.08
2022-12-20T02:07:54.051Z,5.21
2022-12-20T02:10:21.506Z,5.22
2022-12-20T02:12:48.306Z,5.33
2022-12-20T02:15:23.800Z,5.32
2022-12-20T02:18:02.794Z,5.33
2022-12-20T02:20:44.361Z,5.27
2022-12-20T02:23:46.252Z,5.23
2022-12-20T02:26:35.350Z,5.28
2022-12-20T02:29:07.653Z,5.20
2022-12-20T02:31:38.761Z,5.22
2022-12-20T02:34:05.345Z,5.21
2022-12-20T02:36:31.821Z,5.27
2022-12-20T02:38:58.292Z,5.21
2022-12-20T02:41:28.276Z,5.08
2022-12-20T02:44:38.201Z,5.09
2022-12-20T02:47:06.407Z,5.09
2022-12-20T02:49:34.268Z,5.05
2022-12-20T02:52:00.787Z,5.00
2022-12-20T02:54:27.679Z,5.00
2022-12-20T02:56:57.059Z,4.97
2022-12-20T02:59:42.718Z,5.07
2022-12-20T03:02:09.388Z,5.05
2022-12-20T03:04:37.545Z,4.99
2022-12-20T03:07:06.197Z,4.97
2022-12-20T03:09:33.922Z,5.01
2022-12-20T03:12:00.448Z,5.07
2022-12-20T03:14:27.308Z,5.05
2022-12-20T03:16:53.830Z,5.02
2022-12-20T03:19:20.431Z,4.92
2022-12-20T03:21:46.960Z,4.81
2022-12-20T03:24:13.727Z,4.87
2022-12-20T03:26:40.724Z,4.92
2022-12-20T03:29:07.303Z,4.90
2022-12-20T03:31:33.965Z,4.92
2022-12-20T03:34:00.517Z,4.89
2022-12-20T03:36:27.037Z,4.86
2022-12-20T03:38:53.582Z,4.86
2022-12-20T03:41:21.309Z,4.74
2022-12-20T03:43:48.556Z,4.77
2022-12-20T03:46:15.060Z,4.75
2022-12-20T03:48:41.955Z,4.80
2022-12-20T03:51:08.410Z,4.82
2022-12-20T03:53:34.909Z,4.81
2022-12-20T03:56:01.372Z,4.84
2022-12-20T03:58:27.863Z,4.83
2022-12-20T04:00:54.435Z,4.80
2022-12-20T04:03:20.984Z,4.78
2022-12-20T04:05:47.482Z,4.79
2022-12-20T04:08:13.956Z,4.79
2022-12-20T04:11:00.670Z,4.85
2022-12-20T04:13:27.125Z,4.90
2022-12-20T04:15:59.817Z,4.93
2022-12-20T04:18:26.975Z,4.85
2022-12-20T04:20:53.933Z,4.93
2022-12-20T04:23:20.508Z,4.93
2022-12-20T04:25:47.114Z,4.92
2022-12-20T04:28:13.587Z,5.02
2022-12-20T04:30:40.077Z,5.02
2022-12-20T04:33:06.580Z,5.03
2022-12-20T04:35:33.089Z,4.96
2022-12-20T04:37:59.582Z,4.96
2022-12-20T04:40:26.055Z,4.99
2022-12-20T04:42:52.639Z,4.96
2022-12-20T04:45:19.162Z,4.87
2022-12-20T04:47:45.660Z,4.91
2022-12-20T04:50:12.230Z,4.84
2022-12-20T04:52:57.123Z,4.86
2022-12-20T04:55:23.791Z,4.87
2022-12-20T04:57:50.281Z,4.90
2022-12-20T05:00:17.192Z,4.88
2022-12-20T05:02:43.805Z,4.92
2022-12-20T05:05:10.385Z,4.93
2022-12-20T05:07:37.313Z,4.95
2022-12-20T05:10:04.419Z,4.96
2022-12-20T05:12:30.905Z,4.98
2022-12-20T05:14:57.396Z,4.94
2022-12-20T05:17:23.886Z,5.00
2022-12-20T05:19:52.571Z,4.96
2022-12-20T05:22:37.385Z,5.03
2022-12-20T05:25:23.002Z,5.01
2022-12-20T05:27:49.473Z,4.94
2022-12-20T05:30:16.181Z,5.02
2022-12-20T05:32:42.677Z,4.98
2022-12-20T05:35:09.415Z,4.95
2022-12-20T05:37:35.925Z,4.89
2022-12-20T05:40:02.460Z,4.92
2022-12-20T05:42:28.962Z,4.92
2022-12-20T05:44:55.508Z,4.85
2022-12-20T05:47:22.153Z,4.84
2022-12-20T05:49:48.662Z,4.87
2022-12-20T05:52:15.183Z,4.85
2022-12-20T05:54:41.713Z,4.84
2022-12-20T05:57:08.401Z,4.84
2022-12-20T05:59:35.104Z,4.84
2022-12-20T06:02:01.674Z,4.81
2022-12-20T06:04:28.241Z,4.84
2022-12-20T06:06:54.708Z,4.82
2022-12-20T06:09:21.289Z,4.79
2022-12-20T06:11:47.794Z,4.75
2022-12-20T06:14:14.301Z,4.78
2022-12-20T06:16:40.846Z,4.75
2022-12-20T06:19:07.373Z,4.71
2022-12-20T06:21:33.843Z,4.72
2022-12-20T06:24:01.559Z,4.76
2022-12-20T06:26:28.185Z,4.77
2022-12-20T06:28:57.058Z,4.74
2022-12-20T06:31:23.663Z,4.80
2022-12-20T06:33:50.161Z,4.76
2022-12-20T06:36:16.652Z,4.78
2022-12-20T06:38:43.197Z,4.78
2022-12-20T06:41:09.745Z,4.82
2022-12-20T06:43:36.235Z,4.84
2022-12-20T06:46:02.927Z,4.89
2022-12-20T06:48:29.817Z,4.93
2022-12-20T06:50:56.580Z,4.92
2022-12-20T06:53:23.063Z,4.96
2022-12-20T06:55:52.329Z,5.00
2022-12-20T06:58:19.196Z,5.02
2022-12-20T07:00:45.723Z,5.06
2022-12-20T07:03:12.399Z,5.12
2022-12-20T07:05:39.426Z,5.13
2022-12-20T07:08:06.028Z,5.12
2022-12-20T07:10:36.377Z,5.17
2022-12-20T07:13:02.964Z,5.15
2022-12-20T07:15:29.439Z,5.20
2022-12-20T07:17:55.988Z,5.18
2022-12-20T07:20:22.475Z,5.16
2022-12-20T07:22:48.969Z,5.20
2022-12-20T07:25:15.489Z,5.25
2022-12-20T07:27:41.971Z,5.22
2022-12-20T07:30:08.814Z,5.14
2022-12-20T07:32:35.287Z,5.18
2022-12-20T07:35:01.802Z,5.18
2022-12-20T07:37:31.348Z,5.19
2022-12-20T07:39:57.919Z,5.26
2022-12-20T07:42:27.783Z,5.27
2022-12-20T07:45:02.381Z,5.29
2022-12-20T07:47:29.001Z,5.27
2022-12-20T07:49:55.519Z,5.29
2022-12-20T07:52:22.389Z,5.25
2022-12-20T07:54:52.119Z,5.26
2022-12-20T07:57:25.218Z,5.28
2022-12-20T07:59:53.869Z,5.28
2022-12-20T08:02:26.490Z,5.30
2022-12-20T08:04:53.412Z,5.28
2022-12-20T08:07:19.944Z,5.37
2022-12-20T08:09:46.506Z,5.40
2022-12-20T08:12:14.186Z,5.42
2022-12-20T08:14:40.691Z,5.44
2022-12-20T08:17:07.251Z,5.48
2022-12-20T08:19:33.780Z,5.44
2022-12-20T08:22:00.260Z,5.46
2022-12-20T08:24:26.827Z,5.47
2022-12-20T08:26:53.312Z,5.49
2022-12-20T08:29:19.802Z,5.53
2022-12-20T08:31:50.370Z,5.54
2022-12-20T08:34:17.406Z,5.56
2022-12-20T08:36:44.004Z,5.61
2022-12-20T08:39:11.395Z,5.60
2022-12-20T08:41:37.854Z,5.66
2022-12-20T08:44:05.271Z,5.67
2022-12-20T08:46:31.844Z,5.67
2022-12-20T08:48:58.438Z,5.70
2022-12-20T08:51:24.979Z,5.68
2022-12-20T08:53:52.738Z,5.69
2022-12-20T08:56:19.979Z,5.70
2022-12-20T08:58:46.616Z,5.73
2022-12-20T09:01:15.045Z,5.78
2022-12-20T09:03:42.246Z,5.79
2022-12-20T09:06:14.238Z,5.79
2022-12-20T09:08:40.800Z,5.85
2022-12-20T09:11:09.469Z,5.89
2022-12-20T09:13:43.106Z,5.95
2022-12-20T09:16:10.173Z,6.00
2022-12-20T09:18:37.077Z,6.10
2022-12-20T09:21:04.422Z,6.17
2022-12-20T09:23:31.328Z,6.15
2022-12-20T09:26:08.503Z,6.17
2022-12-20T09:28:34.989Z,6.20
2022-12-20T09:31:05.757Z,6.15
2022-12-20T09:33:32.687Z,6.16
2022-12-20T09:35:59.376Z,6.14
2022-12-20T09:38:25.851Z,6.19
2022-12-20T09:40:57.208Z,6.20
2022-12-20T09:43:23.825Z,6.28
2022-12-20T09:45:56.521Z,6.31
2022-12-20T09:48:25.256Z,6.39
2022-12-20T09:51:06.917Z,6.44
2022-12-20T09:54:01.880Z,6.45
2022-12-20T09:56:31.127Z,6.51
2022-12-20T09:58:58.837Z,6.59
2022-12-20T10:01:29.948Z,6.65
2022-12-20T10:04:00.386Z,6.66
2022-12-20T10:06:29.897Z,6.74
2022-12-20T10:09:09.369Z,6.69
2022-12-20T10:12:23.894Z,6.58
2022-12-20T10:15:12.286Z,6.57
2022-12-20T10:17:43.059Z,6.57
2022-12-20T10:20:12.481Z,6.64
2022-12-20T10:22:51.273Z,6.69
2022-12-20T10:25:22.964Z,6.63
2022-12-20T10:27:50.265Z,6.60
2022-12-20T10:30:18.895Z,6.58
2022-12-20T10:32:46.961Z,6.57
2022-12-20T10:35:43.942Z,6.56
2022-12-20T10:38:12.713Z,6.58
2022-12-20T10:43:45.159Z,6.58
2022-12-20T10:46:11.738Z,6.57
2022-12-20T10:48:42.649Z,6.57
2022-12-20T10:51:16.515Z,6.56
2022-12-20T10:54:20.191Z,6.54
2022-12-20T10:56:54.897Z,6.58
2022-12-20T10:59:21.285Z,6.51
2022-12-20T11:01:48.313Z,6.54
2022-12-20T11:04:29.469Z,6.55
2022-12-20T11:06:56.016Z,6.55
2022-12-20T11:09:27.645Z,6.59
2022-12-20T11:12:01.576Z,6.63
2022-12-20T11:14:32.747Z,6.57
2022-12-20T11:17:07.807Z,6.55
2022-12-20T11:19:53.502Z,6.56
2022-12-20T11:22:46.115Z,6.63
2022-12-20T11:25:46.605Z,6.64
2022-12-20T11:28:37.393Z,6.63
2022-12-20T11:31:20.446Z,6.69
2022-12-20T11:34:05.560Z,6.63
2022-12-20T11:37:02.826Z,6.63
2022-12-20T11:39:35.025Z,6.64
2022-12-20T11:42:30.139Z,6.65
2022-12-20T11:45:10.059Z,6.73
2022-12-20T11:47:55.990Z,6.74
2022-12-20T11:50:54.892Z,6.79
2022-12-20T11:53:52.580Z,6.77
2022-12-20T11:56:22.610Z,6.81
2022-12-20T11:58:58.987Z,6.79
2022-12-20T12:01:29.981Z,6.88
2022-12-20T12:04:10.464Z,6.86
2022-12-20T12:06:43.690Z,6.92
2022-12-20T12:09:36.658Z,7.02
2022-12-20T12:12:10.757Z,6.95
2022-12-20T12:15:16.665Z,7.07
2022-12-20T12:18:02.922Z,7.04
2022-12-20T12:20:44.546Z,7.08
2022-12-20T12:23:17.413Z,7.14
2022-12-20T12:25:43.874Z,7.12
2022-12-20T12:28:12.446Z,7.14
2022-12-20T12:30:40.999Z,7.16
2022-12-20T12:33:12.693Z,7.20
2022-12-20T12:36:04.134Z,7.21
2022-12-20T12:39:13.406Z,7.23
2022-12-20T12:41:45.985Z,7.25
2022-12-20T12:44:32.878Z,7.24
2022-12-20T12:47:00.944Z,7.23
2022-12-20T12:49:28.302Z,7.21
2022-12-20T12:51:59.657Z,7.24
2022-12-20T12:54:44.424Z,7.21
2022-12-20T12:57:12.756Z,7.16
2022-12-20T12:59:39.079Z,7.22
2022-12-20T13:02:15.089Z,7.22
2022-12-20T13:05:06.441Z,7.26
2022-12-20T13:07:32.757Z,7.17
2022-12-20T13:10:00.257Z,7.20
2022-12-20T13:12:38.953Z,7.16
2022-12-20T13:15:34.850Z,7.09
2022-12-20T13:18:02.191Z,7.07
2022-12-20T13:20:30.231Z,7.03
2022-12-20T13:23:07.385Z,7.03
2022-12-20T13:25:35.786Z,7.04
2022-12-20T13:28:28.624Z,7.10
2022-12-20T13:30:57.822Z,7.07
2022-12-20T13:33:39.281Z,7.08
2022-12-20T13:36:11.728Z,7.09
2022-12-20T13:39:19.737Z,7.16
2022-12-20T13:41:53.961Z,7.10
2022-12-20T13:44:29.297Z,7.28
2022-12-20T13:47:01.147Z,7.26
2022-12-20T13:49:42.385Z,7.26
2022-12-20T13:52:11.835Z,7.30
2022-12-20T13:54:45.900Z,7.28
2022-12-20T13:57:16.081Z,7.33
2022-12-20T13:59:46.027Z,7.35
2022-12-20T14:02:22.658Z,7.30
2022-12-20T14:04:56.245Z,7.33
2022-12-20T14:07:22.883Z,7.34
2022-12-20T14:09:56.011Z,7.37
2022-12-20T14:12:28.593Z,7.37
2022-12-20T14:14:57.915Z,7.33
2022-12-20T14:17:28.131Z,7.36
2022-12-20T14:20:17.280Z,7.32
2022-12-20T14:23:09.177Z,7.33
2022-12-20T14:25:38.807Z,7.32
2022-12-20T14:28:05.504Z,7.26
2022-12-20T14:30:36.779Z,7.29
2022-12-20T14:33:03.338Z,7.27
2022-12-20T14:35:29.864Z,7.28
2022-12-20T14:38:00.438Z,7.19
2022-12-20T14:40:27.097Z,7.17
2022-12-20T14:42:54.734Z,7.10
2022-12-20T14:45:25.613Z,7.11
2022-12-20T14:48:06.710Z,7.11
2022-12-20T14:50:37.156Z,7.03
2022-12-20T14:53:03.721Z,7.03
2022-12-20T14:55:36.537Z,7.03
2022-12-20T14:58:06.795Z,7.00
2022-12-20T15:00:34.322Z,7.05
2022-12-20T15:03:12.970Z,7.03
2022-12-20T15:05:43.523Z,7.07
2022-12-20T15:08:20.088Z,7.07
2022-12-20T15:11:08.884Z,7.03
2022-12-20T15:13:42.823Z,7.10
2022-12-20T15:16:20.496Z,7.06
2022-12-20T15:18:47.643Z,7.16
2022-12-20T15:21:15.808Z,7.08
2022-12-20T15:23:51.502Z,7.24
2022-12-20T15:26:19.334Z,7.22
2022-12-20T15:28:46.038Z,7.22
2022-12-20T15:31:14.115Z,7.20
2022-12-20T15:33:41.284Z,7.20
2022-12-20T15:36:07.890Z,7.20
2022-12-20T15:39:03.383Z,7.16
2022-12-20T15:41:27.530Z,7.14
2022-12-20T15:43:56.309Z,7.11
2022-12-20T15:46:22.898Z,7.00
2022-12-20T15:48:49.428Z,6.80
2022-12-20T15:51:36.690Z,6.79
2022-12-20T15:54:07.496Z,6.73
2022-12-20T15:56:34.005Z,6.72
2022-12-20T15:59:05.456Z,6.64
2022-12-20T16:01:44.528Z,6.52
2022-12-20T16:04:18.934Z,6.44
2022-12-20T16:06:47.072Z,6.42
2022-12-20T16:09:13.640Z,6.44
2022-12-20T16:11:40.199Z,6.40
2022-12-20T16:14:06.685Z,6.40
2022-12-20T16:16:34.599Z,6.42
2022-12-20T16:19:02.052Z,6.42
2022-12-20T16:21:31.900Z,6.39
2022-12-20T16:23:58.456Z,6.35
2022-12-20T16:26:27.975Z,6.35
2022-12-20T16:28:54.961Z,6.56
2022-12-20T16:31:37.320Z,6.59
2022-12-20T16:34:10.143Z,6.55
2022-12-20T16:36:36.618Z,6.52
2022-12-20T16:39:03.120Z,6.56
2022-12-20T16:41:30.458Z,6.52
2022-12-20T16:44:00.902Z,6.57
2022-12-20T16:46:36.493Z,6.64
2022-12-20T16:49:03.065Z,6.66
2022-12-20T16:51:34.029Z,6.65
2022-12-20T16:54:18.587Z,6.63
2022-12-20T16:56:47.235Z,6.52
2022-12-20T16:59:22.738Z,6.51
2022-12-20T17:01:51.690Z,6.59
2022-12-20T17:04:18.513Z,6.58
2022-12-20T17:06:45.219Z,6.50
2022-12-20T17:11:55.747Z,6.48
2022-12-20T17:14:22.283Z,6.40
2022-12-20T17:16:49.153Z,6.39
2022-12-20T17:19:16.360Z,6.41
2022-12-20T17:24:28.845Z,6.36
2022-12-20T17:26:55.375Z,6.41
2022-12-20T17:29:21.853Z,6.37
2022-12-20T17:31:48.483Z,6.27
2022-12-20T17:34:24.592Z,6.31
2022-12-20T17:36:52.219Z,6.36
2022-12-20T17:39:18.826Z,6.34
2022-12-20T17:41:45.398Z,6.28
2022-12-20T17:44:25.833Z,6.25
2022-12-20T17:46:52.984Z,6.33
2022-12-20T17:49:19.972Z,6.27
2022-12-20T17:51:46.492Z,6.26
2022-12-20T17:54:20.672Z,6.19
2022-12-20T17:56:47.531Z,6.17
2022-12-20T17:59:14.111Z,6.12
2022-12-20T18:01:40.796Z,6.11
2022-12-20T18:04:09.181Z,6.15
2022-12-20T18:06:39.581Z,6.10
2022-12-20T18:09:08.081Z,6.09
2022-12-20T18:11:34.599Z,6.07
2022-12-20T18:14:01.244Z,6.05
2022-12-20T18:16:29.595Z,6.01
2022-12-20T18:18:56.269Z,6.01
2022-12-20T18:21:23.588Z,6.01
2022-12-20T18:23:50.330Z,6.05
2022-12-20T18:26:18.811Z,6.05
2022-12-20T18:28:46.049Z,6.14
2022-12-20T18:31:16.052Z,6.06
2022-12-20T18:33:42.562Z,5.98
2022-12-20T18:36:10.744Z,6.06
2022-12-20T18:38:37.692Z,5.99
2022-12-20T18:41:05.135Z,6.01
2022-12-20T18:43:32.085Z,6.01
2022-12-20T18:46:05.172Z,5.98
2022-12-20T18:48:32.715Z,5.98
2022-12-20T18:51:12.715Z,6.08
2022-12-20T18:53:40.183Z,6.05
2022-12-20T18:56:11.249Z,6.00
2022-12-20T18:58:38.500Z,6.04
2022-12-20T19:01:06.167Z,6.02
2022-12-20T19:03:32.857Z,6.09
2022-12-20T19:05:59.415Z,6.13
2022-12-20T19:08:27.269Z,6.19
2022-12-20T19:10:53.919Z,6.17
2022-12-20T19:13:20.410Z,6.24
2022-12-20T19:15:49.498Z,6.20
2022-12-20T19:18:16.253Z,6.12
2022-12-20T19:20:43.004Z,6.16
2022-12-20T19:23:09.518Z,6.17
2022-12-20T19:25:36.687Z,6.12
2022-12-20T19:28:03.591Z,6.15
2022-12-20T19:30:30.204Z,6.13
2022-12-20T19:32:56.889Z,6.07
2022-12-20T19:35:54.378Z,6.08
2022-12-20T19:38:09.926Z,6.07
2022-12-20T19:40:36.807Z,6.06
2022-12-20T19:43:03.298Z,6.07
2022-12-20T19:45:30.123Z,6.15
2022-12-20T19:47:56.635Z,6.09
2022-12-20T19:50:23.088Z,6.16
2022-12-20T19:52:51.401Z,6.19
2022-12-20T19:55:18.187Z,6.32
2022-12-20T19:57:44.712Z,6.28
2022-12-20T20:00:11.847Z,6.32
2022-12-20T20:02:38.540Z,6.33
2022-12-20T20:05:11.045Z,6.35
2022-12-20T20:07:41.073Z,6.41
2022-12-20T20:10:08.405Z,6.39
2022-12-20T20:12:36.450Z,6.45
2022-12-20T20:15:03.089Z,6.43
2022-12-20T20:17:29.616Z,6.37
2022-12-20T20:19:56.337Z,6.37
2022-12-20T20:22:23.345Z,6.38
2022-12-20T20:24:50.000Z,6.41
2022-12-20T20:27:16.481Z,6.42
2022-12-20T20:29:42.970Z,6.43
2022-12-20T20:32:09.487Z,6.42
2022-12-20T20:34:36.139Z,6.44
2022-12-20T20:37:02.789Z,6.48
2022-12-20T20:39:29.289Z,6.47
2022-12-20T20:41:55.784Z,6.44
2022-12-20T20:44:22.265Z,6.44
2022-12-20T20:46:48.868Z,6.37
2022-12-20T20:49:15.822Z,6.38
2022-12-20T20:51:42.303Z,6.40
2022-12-20T20:54:08.785Z,6.34
2022-12-20T20:56:35.989Z,6.29
2022-12-20T20:59:06.130Z,6.30
2022-12-20T21:01:33.744Z,6.22
2022-12-20T21:04:00.460Z,6.20
2022-12-20T21:06:42.525Z,6.17
2022-12-20T21:09:09.333Z,6.13
2022-12-20T21:11:36.891Z,6.10
2022-12-20T21:14:03.727Z,6.06
2022-12-20T21:16:30.293Z,6.11
2022-12-20T21:18:57.340Z,6.09
2022-12-20T21:21:24.504Z,6.09
2022-12-20T21:23:51.075Z,6.01
2022-12-20T21:26:18.129Z,6.05
2022-12-20T21:28:45.394Z,6.01
2022-12-20T21:31:14.072Z,5.90
2022-12-20T21:33:40.676Z,6.05
2022-12-20T21:36:11.753Z,6.06
2022-12-20T21:38:38.231Z,6.08
2022-12-20T21:41:06.148Z,6.11
2022-12-20T21:43:32.648Z,6.08
2022-12-20T21:45:59.201Z,6.13
2022-12-20T21:48:25.999Z,6.12
2022-12-20T21:51:02.145Z,6.09
2022-12-20T21:53:29.195Z,6.10
2022-12-20T21:55:56.532Z,6.11
2022-12-20T21:58:23.889Z,6.14
2022-12-20T22:00:54.784Z,6.11
2022-12-20T22:03:22.135Z,6.05
2022-12-20T22:05:52.178Z,6.11
2022-12-20T22:08:19.101Z,6.11
2022-12-20T22:10:45.656Z,6.06
2022-12-20T22:13:12.401Z,6.09
2022-12-20T22:15:39.254Z,6.08
2022-12-20T22:18:06.092Z,6.03
2022-12-20T22:20:32.661Z,6.06
2022-12-20T22:22:59.125Z,6.08
2022-12-20T22:25:25.599Z,6.08
2022-12-20T22:27:52.178Z,6.13
2022-12-20T22:30:18.709Z,6.09
2022-12-20T22:32:45.182Z,6.02
2022-12-20T22:35:11.666Z,6.09
2022-12-20T22:37:38.171Z,6.05
2022-12-20T22:40:05.095Z,6.11
2022-12-20T22:42:31.592Z,6.03
2022-12-20T22:44:58.079Z,6.02
2022-12-20T22:47:24.546Z,6.04
2022-12-20T22:49:51.028Z,6.09
2022-12-20T22:52:17.508Z,6.09
2022-12-20T22:54:44.541Z,6.07
2022-12-20T22:57:14.641Z,6.13
2022-12-20T22:59:41.140Z,6.14
2022-12-20T23:02:07.799Z,6.21
2022-12-20T23:04:34.402Z,6.18
2022-12-20T23:07:00.869Z,6.24
2022-12-20T23:09:27.378Z,6.32
2022-12-20T23:12:12.241Z,6.30
2022-12-20T23:15:03.615Z,6.29
2022-12-20T23:17:32.458Z,6.19
2022-12-20T23:20:17.521Z,6.20
2022-12-20T23:22:45.043Z,6.12
2022-12-20T23:25:16.320Z,6.20
2022-12-20T23:27:43.451Z,6.31
2022-12-20T23:30:11.590Z,6.21
2022-12-20T23:32:38.056Z,6.23
2022-12-20T23:35:11.989Z,6.34
2022-12-20T23:37:39.013Z,6.35
2022-12-20T23:40:06.098Z,6.25
2022-12-20T23:42:32.574Z,6.37
2022-12-20T23:44:59.063Z,6.26
2022-12-20T23:47:25.520Z,6.23
2022-12-20T23:49:52.054Z,6.24
2022-12-20T23:52:18.543Z,6.26
2022-12-20T23:54:45.061Z,6.35
2022-12-20T23:57:12.319Z,6.24
2022-12-20T23:59:38.891Z,6.31
